createdAt,value
2023-05-08T00:01:34.164Z,98527.41
2023-05-08T00:04:37.040Z,98526.25
2023-05-08T00:07:39.826Z,98531.25
2023-05-08T00:10:42.919Z,98521.38
2023-05-08T00:13:45.618Z,98532.63
2023-05-08T00:16:48.459Z,98536.16
2023-05-08T00:19:51.368Z,98534.50
2023-05-08T00:22:54.186Z,98532.81
2023-05-08T00:25:57.072Z,98531.16
2023-05-08T00:28:59.674Z,98529.72
2023-05-08T00:32:02.620Z,98526.91
2023-05-08T00:35:05.762Z,98525.97
2023-05-08T00:38:08.606Z,98530.97
2023-05-08T00:41:11.325Z,98534.81
2023-05-08T00:44:14.091Z,98542.03
2023-05-08T00:47:17.028Z,98539.72
2023-05-08T00:50:19.940Z,98546.81
2023-05-08T00:53:23.372Z,98540.75
2023-05-08T00:56:26.204Z,98537.00
2023-05-08T00:59:29.036Z,98545.34
2023-05-08T01:02:33.263Z,98548.47
2023-05-08T01:05:39.143Z,98543.78
2023-05-08T01:08:48.081Z,98541.25
2023-05-08T01:12:04.460Z,98541.03
2023-05-08T01:15:10.407Z,98543.88
2023-05-08T01:18:25.573Z,98550.84
2023-05-08T01:21:35.216Z,98555.97
2023-05-08T01:24:38.097Z,98550.38
2023-05-08T01:28:08.498Z,98554.50
2023-05-08T01:31:29.321Z,98558.81
2023-05-08T01:34:33.697Z,98556.81
2023-05-08T01:37:46.590Z,98549.69
2023-05-08T01:40:58.305Z,98552.75
2023-05-08T01:44:12.898Z,98558.47
2023-05-08T01:47:16.243Z,98556.69
2023-05-08T01:50:22.915Z,98557.84
2023-05-08T01:53:38.195Z,98566.91
2023-05-08T01:56:44.591Z,98556.41
2023-05-08T01:59:48.574Z,98561.69
2023-05-08T02:02:52.370Z,98560.88
2023-05-08T02:05:56.244Z,98556.63
2023-05-08T02:09:00.410Z,98569.63
2023-05-08T02:12:04.297Z,98571.50
2023-05-08T02:15:10.498Z,98574.72
2023-05-08T02:18:15.526Z,98572.47
2023-05-08T02:21:19.196Z,98568.00
2023-05-08T02:24:22.994Z,98572.34
2023-05-08T02:27:28.605Z,98573.06
2023-05-08T02:30:33.342Z,98578.28
2023-05-08T02:33:37.725Z,98577.47
2023-05-08T02:36:40.717Z,98574.66
2023-05-08T02:39:44.021Z,98579.13
2023-05-08T02:42:47.325Z,98584.13
2023-05-08T02:45:50.714Z,98580.91
2023-05-08T02:48:57.815Z,98581.84
2023-05-08T02:52:14.017Z,98587.88
2023-05-08T02:55:30.101Z,98579.94
2023-05-08T02:58:37.898Z,98588.72
2023-05-08T03:01:46.703Z,98594.13
2023-05-08T03:04:52.395Z,98588.19
2023-05-08T03:07:56.525Z,98591.66
2023-05-08T03:11:10.785Z,98587.69
2023-05-08T03:14:15.403Z,98585.38
2023-05-08T03:17:20.750Z,98582.16
2023-05-08T03:20:26.942Z,98580.56
2023-05-08T03:23:30.397Z,98585.81
2023-05-08T03:26:33.576Z,98599.97
2023-05-08T03:29:38.016Z,98594.75
2023-05-08T03:32:41.076Z,98603.50
2023-05-08T03:35:46.007Z,98597.91
2023-05-08T03:38:49.172Z,98603.81
2023-05-08T03:41:52.392Z,98607.28
2023-05-08T03:44:55.442Z,98600.72
2023-05-08T03:47:59.710Z,98599.66
2023-05-08T03:51:04.172Z,98597.06
2023-05-08T03:54:08.589Z,98606.63
2023-05-08T03:57:11.758Z,98601.81
2023-05-08T04:00:50.777Z,98604.41
2023-05-08T04:04:00.372Z,98598.91
2023-05-08T04:07:11.143Z,98598.31
2023-05-08T04:10:27.633Z,98595.16
2023-05-08T04:13:32.340Z,98595.06
2023-05-08T04:16:41.224Z,98598.59
2023-05-08T04:19:47.255Z,98592.66
2023-05-08T04:22:51.142Z,98596.47
2023-05-08T04:25:55.966Z,98607.63
2023-05-08T04:28:59.021Z,98611.13
2023-05-08T04:32:01.967Z,98618.59
2023-05-08T04:35:06.715Z,98611.44
2023-05-08T04:38:09.963Z,98618.16
2023-05-08T04:41:12.914Z,98633.50
2023-05-08T04:44:16.477Z,98634.38
2023-05-08T04:47:20.095Z,98638.03
2023-05-08T04:50:23.324Z,98640.09
2023-05-08T04:53:26.228Z,98639.81
2023-05-08T04:56:29.893Z,98641.66
2023-05-08T04:59:33.485Z,98632.44
2023-05-08T05:02:36.696Z,98642.38
2023-05-08T05:05:43.432Z,98649.75
2023-05-08T05:08:46.315Z,98641.75
2023-05-08T05:11:49.267Z,98656.09
2023-05-08T05:14:53.103Z,98657.63
2023-05-08T05:17:56.208Z,98662.25
2023-05-08T05:20:59.891Z,98657.63
2023-05-08T05:24:06.333Z,98670.84
2023-05-08T05:27:09.367Z,98665.75
2023-05-08T05:30:13.038Z,98663.38
2023-05-08T05:33:16.894Z,98664.59
2023-05-08T05:36:20.380Z,98666.16
2023-05-08T05:39:23.670Z,98666.91
2023-05-08T05:42:26.785Z,98665.50
2023-05-08T05:45:33.202Z,98676.31
2023-05-08T05:48:37.391Z,98672.78
2023-05-08T05:51:40.621Z,98669.75
2023-05-08T05:54:44.090Z,98673.56
2023-05-08T05:57:47.705Z,98680.22
2023-05-08T06:00:50.705Z,98681.84
2023-05-08T06:03:54.217Z,98685.84
2023-05-08T06:06:57.398Z,98680.53
2023-05-08T06:10:00.444Z,98684.16
2023-05-08T06:13:03.713Z,98688.81
2023-05-08T06:16:08.420Z,98684.09
2023-05-08T06:19:11.507Z,98682.19
2023-05-08T06:22:14.235Z,98687.16
2023-05-08T06:25:18.116Z,98683.19
2023-05-08T06:28:22.787Z,98690.19
2023-05-08T06:31:25.883Z,98691.91
2023-05-08T06:34:28.754Z,98698.81
2023-05-08T06:37:31.532Z,98689.41
2023-05-08T06:40:34.706Z,98697.31
2023-05-08T06:43:37.475Z,98696.47
2023-05-08T06:46:40.312Z,98697.16
2023-05-08T06:49:43.072Z,98690.38
2023-05-08T06:52:46.457Z,98702.69
2023-05-08T06:55:49.192Z,98694.31
2023-05-08T06:59:01.028Z,98703.94
2023-05-08T07:02:11.165Z,98696.97
2023-05-08T07:05:14.617Z,98701.84
2023-05-08T07:08:17.749Z,98693.69
2023-05-08T07:11:20.583Z,98699.59
2023-05-08T07:14:23.385Z,98703.88
2023-05-08T07:17:27.295Z,98698.91
2023-05-08T07:20:30.868Z,98697.91
2023-05-08T07:23:33.683Z,98702.06
2023-05-08T07:26:38.485Z,98705.09
2023-05-08T07:29:41.644Z,98709.03
2023-05-08T07:32:44.995Z,98701.19
2023-05-08T07:35:47.999Z,98703.13
2023-05-08T07:38:51.030Z,98708.53
2023-05-08T07:41:56.357Z,98712.78
2023-05-08T07:44:59.359Z,98721.75
2023-05-08T07:48:02.041Z,98715.28
2023-05-08T07:51:05.060Z,98720.16
2023-05-08T07:54:07.820Z,98713.94
2023-05-08T07:57:10.548Z,98713.13
2023-05-08T08:00:15.176Z,98714.47
2023-05-08T08:03:18.077Z,98719.66
2023-05-08T08:06:20.978Z,98716.09
2023-05-08T08:09:23.800Z,98718.47
2023-05-08T08:12:27.072Z,98708.88
2023-05-08T08:15:30.084Z,98708.94
2023-05-08T08:18:37.055Z,98716.06
2023-05-08T08:21:44.296Z,98707.97
2023-05-08T08:24:47.308Z,98711.69
2023-05-08T08:27:50.236Z,98705.44
2023-05-08T08:30:52.982Z,98714.66
2023-05-08T08:33:55.912Z,98700.63
2023-05-08T08:36:59.493Z,98699.53
2023-05-08T08:40:02.560Z,98707.44
2023-05-08T08:43:06.368Z,98697.06
2023-05-08T08:46:16.094Z,98704.91
2023-05-08T08:49:31.333Z,98702.31
2023-05-08T08:53:01.507Z,98699.66
2023-05-08T08:56:07.614Z,98705.59
2023-05-08T08:59:12.386Z,98702.81
2023-05-08T09:02:18.343Z,98703.47
2023-05-08T09:05:24.016Z,98700.22
2023-05-08T09:08:27.029Z,98697.38
2023-05-08T09:11:32.660Z,98691.75
2023-05-08T09:14:35.471Z,98691.25
2023-05-08T09:17:38.718Z,98690.09
2023-05-08T09:20:41.598Z,98681.50
2023-05-08T09:24:01.565Z,98680.50
2023-05-08T09:27:06.459Z,98682.97
2023-05-08T09:30:13.498Z,98684.78
2023-05-08T09:33:16.788Z,98682.78
2023-05-08T09:36:29.139Z,98678.66
2023-05-08T09:39:32.737Z,98678.09
2023-05-08T09:42:39.110Z,98662.47
2023-05-08T09:45:43.026Z,98673.16
2023-05-08T09:48:46.590Z,98668.63
2023-05-08T09:51:56.368Z,98661.06
2023-05-08T09:55:09.852Z,98663.31
2023-05-08T09:58:12.892Z,98645.13
2023-05-08T10:01:36.891Z,98661.91
2023-05-08T10:04:39.940Z,98656.50
2023-05-08T10:07:42.909Z,98645.97
2023-05-08T10:10:46.520Z,98648.69
2023-05-08T10:13:49.424Z,98648.81
2023-05-08T10:16:54.407Z,98646.63
2023-05-08T10:20:02.290Z,98642.38
2023-05-08T10:23:11.640Z,98644.06
2023-05-08T10:26:16.970Z,98641.00
2023-05-08T10:29:27.945Z,98643.25
2023-05-08T10:32:40.929Z,98645.28
2023-05-08T10:35:43.924Z,98645.91
2023-05-08T10:38:46.861Z,98643.44
2023-05-08T10:41:50.750Z,98636.41
2023-05-08T10:44:53.935Z,98625.59
2023-05-08T10:48:12.297Z,98633.13
2023-05-08T10:51:33.800Z,98621.59
2023-05-08T10:55:04.968Z,98625.03
2023-05-08T10:58:16.073Z,98626.47
2023-05-08T11:01:19.206Z,98623.16
2023-05-08T11:04:23.450Z,98614.47
2023-05-08T11:07:58.830Z,98604.72
2023-05-08T11:11:02.680Z,98623.03
2023-05-08T11:14:08.610Z,98599.91
2023-05-08T11:17:11.647Z,98607.88
2023-05-08T11:20:15.048Z,98595.09
2023-05-08T11:23:28.631Z,98608.72
2023-05-08T11:26:43.384Z,98594.59
2023-05-08T11:30:08.458Z,98604.34
2023-05-08T11:33:11.610Z,98603.91
2023-05-08T11:36:15.435Z,98601.69
2023-05-08T11:39:21.021Z,98591.91
2023-05-08T11:42:29.456Z,98592.03
2023-05-08T11:45:32.755Z,98592.66
2023-05-08T11:48:36.476Z,98595.47
2023-05-08T11:51:39.582Z,98584.59
2023-05-08T11:54:42.772Z,98587.16
2023-05-08T11:57:45.677Z,98583.63
2023-05-08T12:00:49.162Z,98585.97
2023-05-08T12:04:01.376Z,98587.22
2023-05-08T12:07:04.473Z,98582.22
2023-05-08T12:10:07.927Z,98587.63
2023-05-08T12:13:25.448Z,98586.84
2023-05-08T12:16:28.556Z,98582.69
2023-05-08T12:19:31.573Z,98594.44
2023-05-08T12:22:35.054Z,98578.97
2023-05-08T12:25:40.997Z,98577.28
2023-05-08T12:28:45.467Z,98581.91
2023-05-08T12:31:51.250Z,98580.41
2023-05-08T12:34:54.188Z,98588.63
2023-05-08T12:38:08.415Z,98576.53
2023-05-08T12:41:11.462Z,98574.84
2023-05-08T12:44:24.739Z,98583.09
2023-05-08T12:47:27.627Z,98571.41
2023-05-08T12:50:39.271Z,98570.53
2023-05-08T12:53:42.138Z,98578.25
2023-05-08T12:56:45.353Z,98577.72
2023-05-08T12:59:48.209Z,98579.34
2023-05-08T13:02:55.943Z,98576.44
2023-05-08T13:05:59.548Z,98580.66
2023-05-08T13:09:02.379Z,98581.81
2023-05-08T13:12:07.053Z,98584.31
2023-05-08T13:15:10.677Z,98577.44
2023-05-08T13:18:13.633Z,98573.41
2023-05-08T13:21:16.731Z,98578.53
2023-05-08T13:24:19.421Z,98570.88
2023-05-08T13:27:22.417Z,98585.06
2023-05-08T13:30:25.318Z,98575.22
2023-05-08T13:33:28.172Z,98568.19
2023-05-08T13:36:32.147Z,98569.94
2023-05-08T13:39:38.192Z,98556.59
2023-05-08T13:42:41.045Z,98566.34
2023-05-08T13:45:43.998Z,98560.38
2023-05-08T13:48:46.783Z,98571.44
2023-05-08T13:51:55.052Z,98557.91
2023-05-08T13:54:59.752Z,98560.00
2023-05-08T13:58:02.834Z,98555.13
2023-05-08T14:01:21.950Z,98574.56
2023-05-08T14:04:28.679Z,98571.53
2023-05-08T14:07:31.519Z,98561.81
2023-05-08T14:10:34.361Z,98563.28
2023-05-08T14:13:39.075Z,98571.44
2023-05-08T14:16:42.050Z,98564.56
2023-05-08T14:19:46.517Z,98568.91
2023-05-08T14:22:49.707Z,98571.38
2023-05-08T14:25:52.490Z,98577.72
2023-05-08T14:28:55.303Z,98578.59
2023-05-08T14:31:58.069Z,98571.75
2023-05-08T14:35:00.970Z,98576.16
2023-05-08T14:38:03.756Z,98577.47
2023-05-08T14:41:06.724Z,98581.66
2023-05-08T14:44:16.891Z,98568.59
2023-05-08T14:47:20.032Z,98570.31
2023-05-08T14:50:24.444Z,98582.47
2023-05-08T14:53:27.600Z,98573.78
2023-05-08T14:56:40.482Z,98584.19
2023-05-08T14:59:54.969Z,98572.75
2023-05-08T15:02:58.327Z,98573.50
2023-05-08T15:06:01.420Z,98584.56
2023-05-08T15:09:04.148Z,98580.22
2023-05-08T15:12:07.123Z,98580.66
2023-05-08T15:15:10.444Z,98582.97
2023-05-08T15:18:13.180Z,98588.81
2023-05-08T15:21:16.555Z,98585.50
2023-05-08T15:24:19.752Z,98586.16
2023-05-08T15:27:22.376Z,98580.28
2023-05-08T15:30:25.463Z,98590.28
2023-05-08T15:33:28.244Z,98589.72
2023-05-08T15:36:33.497Z,98583.91
2023-05-08T15:39:37.461Z,98585.53
2023-05-08T15:42:40.471Z,98581.97
2023-05-08T15:45:43.416Z,98594.56
2023-05-08T15:48:46.154Z,98578.50
2023-05-08T15:51:49.052Z,98587.22
2023-05-08T15:54:51.950Z,98583.25
2023-05-08T15:57:54.855Z,98581.53
2023-05-08T16:00:58.338Z,98582.84
2023-05-08T16:04:01.454Z,98574.16
2023-05-08T16:07:04.947Z,98577.22
2023-05-08T16:10:08.640Z,98572.66
2023-05-08T16:13:11.793Z,98577.00
2023-05-08T16:16:14.845Z,98575.31
2023-05-08T16:19:17.771Z,98576.78
2023-05-08T16:22:20.790Z,98574.78
2023-05-08T16:25:23.732Z,98586.25
2023-05-08T16:28:27.025Z,98590.38
2023-05-08T16:31:29.983Z,98597.66
2023-05-08T16:34:32.986Z,98590.50
2023-05-08T16:37:37.485Z,98586.66
2023-05-08T16:40:42.147Z,98595.72
2023-05-08T16:43:45.378Z,98605.66
2023-05-08T16:46:48.170Z,98613.31
2023-05-08T16:49:51.092Z,98608.94
2023-05-08T16:52:54.034Z,98611.94
2023-05-08T16:55:57.039Z,98623.25
2023-05-08T16:59:01.895Z,98625.09
2023-05-08T17:02:04.875Z,98625.59
2023-05-08T17:05:08.562Z,98627.72
2023-05-08T17:08:12.398Z,98645.09
2023-05-08T17:11:15.611Z,98638.97
2023-05-08T17:14:19.075Z,98654.00
2023-05-08T17:17:21.998Z,98650.59
2023-05-08T17:20:25.065Z,98652.47
2023-05-08T17:23:28.652Z,98643.47
2023-05-08T17:26:34.922Z,98644.63
2023-05-08T17:29:37.698Z,98644.69
2023-05-08T17:32:40.999Z,98649.31
2023-05-08T17:35:43.915Z,98658.47
2023-05-08T17:38:47.756Z,98669.25
2023-05-08T17:41:52.113Z,98674.88
2023-05-08T17:44:55.253Z,98673.59
2023-05-08T17:47:59.381Z,98678.72
2023-05-08T17:51:03.576Z,98685.56
2023-05-08T17:54:07.153Z,98695.00
2023-05-08T17:57:10.472Z,98691.50
2023-05-08T18:00:14.331Z,98701.22
2023-05-08T18:03:17.798Z,98704.31
2023-05-08T18:06:21.257Z,98708.88
2023-05-08T18:09:24.332Z,98707.69
2023-05-08T18:12:27.465Z,98706.31
2023-05-08T18:15:30.595Z,98714.88
2023-05-08T18:18:33.487Z,98723.47
2023-05-08T18:21:36.972Z,98725.94
2023-05-08T18:24:40.258Z,98733.16
2023-05-08T18:27:43.539Z,98742.63
2023-05-08T18:30:46.430Z,98742.34
2023-05-08T18:33:49.418Z,98752.41
2023-05-08T18:36:58.136Z,98750.31
2023-05-08T18:40:02.671Z,98756.13
2023-05-08T18:43:09.134Z,98762.75
2023-05-08T18:46:13.359Z,98758.28
2023-05-08T18:49:16.346Z,98761.91
2023-05-08T18:52:20.940Z,98756.50
2023-05-08T18:55:25.624Z,98766.09
2023-05-08T18:58:28.499Z,98773.94
2023-05-08T19:01:31.461Z,98776.22
2023-05-08T19:04:34.199Z,98784.09
2023-05-08T19:07:37.368Z,98780.44
2023-05-08T19:10:40.191Z,98785.16
2023-05-08T19:13:42.966Z,98790.88
2023-05-08T19:16:45.839Z,98785.44
2023-05-08T19:19:51.860Z,98786.19
2023-05-08T19:22:55.039Z,98787.16
2023-05-08T19:25:58.038Z,98786.91
2023-05-08T19:29:01.089Z,98790.28
2023-05-08T19:32:04.161Z,98791.47
2023-05-08T19:35:08.760Z,98799.06
2023-05-08T19:38:11.692Z,98791.25
2023-05-08T19:44:45.524Z,98793.13
2023-05-08T19:47:49.812Z,98790.03
2023-05-08T19:50:54.805Z,98792.72
2023-05-08T19:53:58.044Z,98790.69
2023-05-08T19:57:01.000Z,98789.72
2023-05-08T20:00:04.842Z,98787.09
2023-05-08T20:03:07.871Z,98787.09
2023-05-08T20:06:10.800Z,98795.13
2023-05-08T20:09:13.389Z,98795.72
2023-05-08T20:12:16.235Z,98792.03
2023-05-08T20:15:19.121Z,98785.72
2023-05-08T20:18:21.858Z,98792.94
2023-05-08T20:21:26.449Z,98795.75
2023-05-08T20:24:29.279Z,98797.47
2023-05-08T20:27:34.305Z,98788.69
2023-05-08T20:30:36.971Z,98792.56
2023-05-08T20:33:39.836Z,98796.50
2023-05-08T20:36:42.686Z,98797.94
2023-05-08T20:39:45.525Z,98798.97
2023-05-08T20:42:48.288Z,98795.31
2023-05-08T20:45:51.215Z,98801.94
2023-05-08T20:48:54.158Z,98804.88
2023-05-08T20:51:56.843Z,98803.81
2023-05-08T20:54:59.895Z,98808.44
2023-05-08T20:58:04.486Z,98798.00
2023-05-08T21:01:07.355Z,98810.09
2023-05-08T21:04:10.057Z,98812.47
2023-05-08T21:07:12.813Z,98810.66
2023-05-08T21:10:16.794Z,98811.94
2023-05-08T21:13:20.130Z,98811.63
2023-05-08T21:16:24.878Z,98809.56
2023-05-08T21:19:31.365Z,98809.91
2023-05-08T21:22:34.395Z,98810.34
2023-05-08T21:25:50.206Z,98806.50
2023-05-08T21:28:54.009Z,98808.56
2023-05-08T21:31:56.709Z,98809.75
2023-05-08T21:34:59.392Z,98812.06
2023-05-08T21:38:02.090Z,98808.22
2023-05-08T21:41:08.776Z,98814.84
2023-05-08T21:44:15.664Z,98812.06
2023-05-08T21:47:18.358Z,98809.53
2023-05-08T21:50:21.089Z,98817.75
2023-05-08T21:53:23.890Z,98812.31
2023-05-08T21:56:26.706Z,98807.59
2023-05-08T21:59:29.381Z,98807.59
2023-05-08T22:02:32.053Z,98812.59
2023-05-08T22:05:34.704Z,98808.41
2023-05-08T22:08:37.370Z,98807.53
2023-05-08T22:11:40.046Z,98812.41
2023-05-08T22:14:42.653Z,98810.13
2023-05-08T22:17:45.376Z,98820.78
2023-05-08T22:20:48.010Z,98813.66
2023-05-08T22:23:50.711Z,98817.53
2023-05-08T22:26:53.354Z,98817.25
2023-05-08T22:29:56.055Z,98812.25
2023-05-08T22:32:59.652Z,98815.59
2023-05-08T22:36:02.255Z,98824.06
2023-05-08T22:39:10.362Z,98820.63
2023-05-08T22:42:13.101Z,98818.22
2023-05-08T22:45:16.989Z,98821.97
2023-05-08T22:48:19.886Z,98821.66
2023-05-08T22:51:22.609Z,98822.28
2023-05-08T22:54:25.246Z,98821.03
2023-05-08T22:57:27.826Z,98831.69
2023-05-08T23:00:30.772Z,98825.75
2023-05-08T23:03:33.447Z,98820.94
2023-05-08T23:06:36.552Z,98823.34
2023-05-08T23:09:39.454Z,98818.34
2023-05-08T23:12:43.220Z,98825.63
2023-05-08T23:15:46.187Z,98818.13
2023-05-08T23:18:48.790Z,98819.59
2023-05-08T23:21:51.863Z,98815.53
2023-05-08T23:24:55.031Z,98814.56
2023-05-08T23:27:57.746Z,98819.16
2023-05-08T23:31:01.305Z,98820.31
2023-05-08T23:34:04.168Z,98825.28
2023-05-08T23:37:06.920Z,98826.13
2023-05-08T23:40:10.370Z,98827.28
2023-05-08T23:43:13.250Z,98813.09
2023-05-08T23:46:16.317Z,98810.88
2023-05-08T23:49:19.521Z,98810.47
2023-05-08T23:52:22.332Z,98799.50
2023-05-08T23:55:25.128Z,98805.97
2023-05-08T23:58:27.804Z,98803.22
